Time;durP1;ratioP1;P1;durP2;ratioP2;P2;SDS_P1;SDS_P2;PMS_P1;PMS_P2;Temp;Humidity;BMP_temperature;BMP_pressure;BME280_temperature;BME280_humidity;BME280_pressure;Samples;Min_cycle;Max_cycle;Signal;HPM_P1;HPM_P2
2022/08/07 00:00:41;;;;;;;0.10;0.10;;;;;;;18.47;56.78;102833.31;5043789;28;20545;-78
2022/08/07 00:03:08;;;;;;;0.17;0.17;;;;;;;18.45;56.61;102829.75;5053998;28;20025;-80
2022/08/07 00:05:36;;;;;;;0.40;0.40;;;;;;;18.45;56.87;102834.25;5050849;28;20064;-80
2022/08/07 00:08:03;;;;;;;0.10;0.10;;;;;;;18.42;56.97;102828.03;5047278;28;20032;-80
2022/08/07 00:10:30;;;;;;;0.10;0.10;;;;;;;18.41;56.90;102822.69;5038327;28;20057;-80
2022/08/07 00:12:59;;;;;;;0.10;0.10;;;;;;;18.40;56.93;102819.09;5047198;28;20060;-80
2022/08/07 00:15:26;;;;;;;0.10;0.10;;;;;;;18.39;57.06;102817.38;5054035;28;20032;-80
2022/08/07 00:17:52;;;;;;;0.80;0.80;;;;;;;18.36;56.96;102822.78;5047639;28;20059;-80
2022/08/07 00:20:18;;;;;;;0.10;0.10;;;;;;;18.35;56.55;102812.97;5051728;28;20032;-80
2022/08/07 00:22:44;;;;;;;0.10;0.10;;;;;;;18.33;56.76;102820.19;5047820;28;20025;-80
2022/08/07 00:25:10;;;;;;;0.10;0.10;;;;;;;18.30;57.33;102814.88;5040937;28;20075;-79
2022/08/07 00:27:36;;;;;;;0.10;0.10;;;;;;;18.30;57.13;102811.31;5041766;28;20048;-80
2022/08/07 00:30:04;;;;;;;0.10;0.10;;;;;;;18.29;56.86;102802.34;5046094;28;20033;-80
2022/08/07 00:32:30;;;;;;;0.15;0.15;;;;;;;18.29;56.99;102804.16;5054414;28;20440;-80
2022/08/07 00:34:56;;;;;;;0.10;0.10;;;;;;;18.24;56.98;102806.94;5048640;28;20025;-80
2022/08/07 00:37:23;;;;;;;0.10;0.10;;;;;;;18.17;57.20;102803.50;5045824;28;20374;-80
2022/08/07 00:39:52;;;;;;;0.00;0.00;;;;;;;18.14;57.04;102800.00;5042078;28;20036;-80
2022/08/07 00:42:20;;;;;;;0.10;0.10;;;;;;;18.11;57.20;102801.81;5037811;28;20134;-79
2022/08/07 00:44:46;;;;;;;0.05;0.05;;;;;;;18.10;57.33;102799.19;5042105;28;20029;-80
2022/08/07 00:47:12;;;;;;;0.03;0.03;;;;;;;18.09;56.69;102795.63;5046253;28;20037;-79
2022/08/07 00:49:38;;;;;;;0.10;0.10;;;;;;;18.08;57.56;102793.84;5051604;28;20506;-80
2022/08/07 00:52:06;;;;;;;0.13;0.13;;;;;;;18.07;57.67;102797.44;5048783;28;20111;-79
2022/08/07 00:54:32;;;;;;;0.10;0.10;;;;;;;18.05;57.18;102798.41;5044281;28;20025;-80
2022/08/07 00:56:58;;;;;;;0.08;0.08;;;;;;;18.02;57.59;102796.66;5041789;28;20044;-79
2022/08/07 00:59:25;;;;;;;0.13;0.13;;;;;;;18.01;57.69;102792.22;5043321;28;20036;-80
2022/08/07 01:01:51;;;;;;;0.10;0.10;;;;;;;17.98;57.57;102786.94;5052757;28;20072;-80
2022/08/07 01:04:18;;;;;;;0.03;0.03;;;;;;;17.96;58.03;102788.75;5050137;28;20437;-79
2022/08/07 01:06:45;;;;;;;0.10;0.10;;;;;;;17.95;57.79;102792.34;5046577;28;20071;-80
2022/08/07 01:09:11;;;;;;;0.10;0.10;;;;;;;17.93;57.42;102794.13;5044720;28;20041;-81
2022/08/07 01:11:39;;;;;;;0.30;0.30;;;;;;;17.91;57.89;102785.25;5038133;28;20029;-79
2022/08/07 01:14:06;;;;;;;0.10;0.10;;;;;;;17.90;58.33;102786.16;5042029;28;20036;-79
2022/08/07 01:16:32;;;;;;;0.10;0.10;;;;;;;17.88;58.06;102796.00;5045534;28;20025;-80
2022/08/07 01:18:58;;;;;;;0.10;0.10;;;;;;;17.88;58.28;102793.31;5044828;28;20084;-79
2022/08/07 01:21:25;;;;;;;1.65;0.73;;;;;;;17.86;58.33;102792.50;5038661;28;20096;-80
2022/08/07 01:23:53;;;;;;;0.25;0.22;;;;;;;17.88;58.07;102790.66;5042744;28;20047;-79
2022/08/07 01:26:21;;;;;;;0.10;0.10;;;;;;;17.86;58.29;102792.50;5045179;28;20022;-80
2022/08/07 01:28:50;;;;;;;0.52;0.47;;;;;;;17.85;58.49;102785.34;5037065;28;20507;-79
2022/08/07 01:31:18;;;;;;;0.00;0.00;;;;;;;17.84;58.02;102780.91;5050768;28;20116;-79
2022/08/07 01:33:45;;;;;;;0.10;0.10;;;;;;;17.83;58.82;102777.34;5049436;28;20049;-79
2022/08/07 01:36:12;;;;;;;0.10;0.10;;;;;;;17.83;58.55;102780.03;5050219;28;20045;-79
2022/08/07 01:38:39;;;;;;;0.10;0.10;;;;;;;17.82;58.44;102774.69;5039446;28;20028;-80
2022/08/07 01:41:07;;;;;;;0.25;0.25;;;;;;;17.81;57.82;102775.59;5051998;28;20033;-80
2022/08/07 01:43:35;;;;;;;0.10;0.10;;;;;;;17.78;58.58;102777.44;5043675;28;20043;-80
2022/08/07 01:46:02;;;;;;;0.10;0.10;;;;;;;17.78;58.67;102780.13;5038617;28;20069;-80
2022/08/07 01:48:28;;;;;;;0.10;0.10;;;;;;;17.78;58.43;102785.47;5038611;28;20025;-79
2022/08/07 01:51:03;;;;;;;0.13;0.13;;;;;;;17.78;58.47;102779.22;5053869;28;20515;-79
2022/08/07 01:53:33;;;;;;;0.10;0.10;;;;;;;17.77;58.94;102780.16;5047395;28;20250;-80
2022/08/07 01:56:06;;;;;;;0.10;0.10;;;;;;;17.78;58.29;102771.16;5045645;28;20080;-79
2022/08/07 01:58:37;;;;;;;0.20;0.20;;;;;;;17.76;58.18;102776.56;5038243;28;20040;-79
2022/08/07 02:01:09;;;;;;;0.10;0.10;;;;;;;17.76;58.49;102773.88;5046034;28;20193;-79
2022/08/07 02:03:41;;;;;;;0.10;0.10;;;;;;;17.73;57.93;102776.66;5041912;28;20031;-79
2022/08/07 02:06:12;;;;;;;0.10;0.10;;;;;;;17.73;58.10;102773.97;5043400;28;20033;-80
2022/08/07 02:08:41;;;;;;;0.10;0.10;;;;;;;17.69;58.55;102771.38;5034095;28;20492;-80
2022/08/07 02:11:09;;;;;;;0.10;0.10;;;;;;;17.66;58.70;102763.34;5040019;28;20030;-79
2022/08/07 02:13:37;;;;;;;0.10;0.10;;;;;;;17.63;58.65;102769.66;5043764;28;20670;-79
2022/08/07 02:16:07;;;;;;;0.10;0.10;;;;;;;17.61;58.38;102768.84;5036724;28;20397;-79
2022/08/07 02:18:37;;;;;;;0.10;0.10;;;;;;;17.61;58.16;102771.50;5049414;28;20065;-79
2022/08/07 02:21:06;;;;;;;0.10;0.10;;;;;;;17.60;58.61;102764.38;5049049;28;20037;-79
2022/08/07 02:23:36;;;;;;;0.10;0.10;;;;;;;17.59;58.22;102762.59;5046074;28;20029;-78
2022/08/07 02:26:05;;;;;;;0.10;0.10;;;;;;;17.54;58.61;102760.00;5044157;28;20045;-79
2022/08/07 02:28:35;;;;;;;2.05;0.35;;;;;;;17.54;58.75;102759.13;5033793;28;20026;-80
2022/08/07 02:31:03;;;;;;;0.00;0.00;;;;;;;17.52;59.14;102760.94;5042773;28;20045;-79
2022/08/07 02:33:32;;;;;;;0.10;0.10;;;;;;;17.50;58.96;102758.31;5037528;28;20477;-80
2022/08/07 02:35:59;;;;;;;0.17;0.17;;;;;;;17.50;59.57;102758.31;5036084;28;20040;-80
2022/08/07 02:38:30;;;;;;;0.00;0.00;;;;;;;17.53;59.13;102757.38;5050538;28;20072;-79
2022/08/07 02:40:57;;;;;;;0.20;0.20;;;;;;;17.52;59.12;102759.16;5045469;28;20559;-79
2022/08/07 02:43:25;;;;;;;0.08;0.08;;;;;;;17.52;59.41;102756.50;5039264;28;20021;-79
2022/08/07 02:45:53;;;;;;;0.10;0.10;;;;;;;17.51;59.44;102751.13;5036856;28;20079;-79
2022/08/07 02:48:20;;;;;;;0.10;0.10;;;;;;;17.48;59.28;102754.75;5045840;28;20033;-79
2022/08/07 02:50:51;;;;;;;0.08;0.08;;;;;;;17.50;59.47;102752.06;5042330;28;20066;-79
2022/08/07 02:53:23;;;;;;;0.10;0.10;;;;;;;17.51;59.47;102753.81;5038962;28;20049;-79
2022/08/07 02:55:51;;;;;;;0.10;0.10;;;;;;;17.46;59.70;102752.13;5044291;28;20048;-79
2022/08/07 02:58:20;;;;;;;0.00;0.00;;;;;;;17.46;59.28;102752.13;5045505;28;20025;-79
2022/08/07 03:00:50;;;;;;;0.10;0.10;;;;;;;17.44;59.52;102756.59;5040207;28;20030;-80
2022/08/07 03:03:18;;;;;;;0.10;0.10;;;;;;;17.43;59.47;102753.97;5042735;28;20041;-80
2022/08/07 03:05:46;;;;;;;0.00;0.00;;;;;;;17.43;59.78;102756.63;5045938;28;20087;-79
2022/08/07 03:08:12;;;;;;;0.00;0.00;;;;;;;17.41;59.21;102764.72;5042340;28;20156;-79
2022/08/07 03:10:39;;;;;;;0.10;0.10;;;;;;;17.39;59.58;102755.81;5052535;28;20094;-79
2022/08/07 03:13:07;;;;;;;0.10;0.10;;;;;;;17.39;59.03;102763.84;5050562;28;20054;-79
2022/08/07 03:15:33;;;;;;;0.10;0.10;;;;;;;17.36;59.13;102753.19;5037329;28;20087;-79
2022/08/07 03:18:00;;;;;;;0.65;0.65;;;;;;;17.37;58.58;102754.06;5044147;28;20045;-79
2022/08/07 03:20:26;;;;;;;0.10;0.10;;;;;;;17.34;59.37;102748.78;5053683;28;20496;-79
2022/08/07 03:22:54;;;;;;;0.10;0.10;;;;;;;17.33;59.39;102750.56;5050429;28;20404;-79
2022/08/07 03:25:22;;;;;;;0.10;0.10;;;;;;;17.31;59.14;102749.72;5046368;28;20033;-79
2022/08/07 03:27:50;;;;;;;0.10;0.10;;;;;;;17.27;59.50;102745.31;5048403;28;20501;-79
2022/08/07 03:30:17;;;;;;;0.68;0.68;;;;;;;17.26;59.81;102743.56;5041304;28;20082;-79
2022/08/07 03:32:46;;;;;;;0.00;0.00;;;;;;;17.27;59.69;102745.31;5037363;28;20110;-80
2022/08/07 03:35:16;;;;;;;0.38;0.38;;;;;;;17.26;59.58;102747.13;5043471;28;20037;-78
2022/08/07 03:37:44;;;;;;;0.10;0.10;;;;;;;17.25;59.49;102741.81;5036177;28;20068;-78
2022/08/07 03:40:11;;;;;;;0.10;0.10;;;;;;;17.24;60.25;102745.38;5046513;28;20489;-79
2022/08/07 03:42:38;;;;;;;0.10;0.10;;;;;;;17.24;60.20;102742.69;5038822;28;20065;-78
2022/08/07 03:45:05;;;;;;;0.10;0.10;;;;;;;17.24;59.92;102740.91;5036016;28;20048;-79
2022/08/07 03:47:32;;;;;;;0.10;0.10;;;;;;;17.22;59.60;102737.38;5044807;28;20025;-79
2022/08/07 03:49:58;;;;;;;0.00;0.00;;;;;;;17.20;59.78;102738.31;5039675;28;20389;-79
2022/08/07 03:52:27;;;;;;;0.10;0.10;;;;;;;17.21;60.07;102742.75;5044550;28;20397;-78
2022/08/07 03:54:57;;;;;;;0.20;0.20;;;;;;;17.18;59.95;102757.06;5039101;28;20025;-79
2022/08/07 03:57:26;;;;;;;0.10;0.10;;;;;;;17.16;60.21;102741.94;5046166;28;20071;-79
2022/08/07 03:59:53;;;;;;;0.03;0.03;;;;;;;17.12;60.50;102742.00;5037892;28;20025;-79
2022/08/07 04:02:20;;;;;;;0.10;0.10;;;;;;;17.13;60.13;102738.44;5045246;28;20033;-79
2022/08/07 04:04:46;;;;;;;0.03;0.03;;;;;;;17.12;60.30;102746.47;5043392;28;20381;-80
2022/08/07 04:07:14;;;;;;;0.17;0.17;;;;;;;17.12;60.19;102735.75;5046493;28;20029;-80
2022/08/07 04:09:41;;;;;;;0.10;0.10;;;;;;;17.11;60.03;102745.59;5045619;28;20034;-79
2022/08/07 04:12:08;;;;;;;0.10;0.10;;;;;;;17.12;59.97;102749.13;5043746;28;20056;-80
2022/08/07 04:14:34;;;;;;;0.20;0.20;;;;;;;17.11;59.84;102740.25;5052706;28;20143;-80
2022/08/07 04:17:01;;;;;;;0.10;0.10;;;;;;;17.10;59.43;102743.81;5050265;28;20037;-79
2022/08/07 04:19:27;;;;;;;0.00;0.00;;;;;;;17.08;59.27;102750.97;5059438;28;20029;-80
2022/08/07 04:21:53;;;;;;;0.60;0.60;;;;;;;17.06;59.50;102749.25;5064042;28;20404;-80
2022/08/07 04:24:20;;;;;;;0.00;0.00;;;;;;;17.06;59.81;102751.91;5065776;28;20052;-79
2022/08/07 04:26:46;;;;;;;0.10;0.10;;;;;;;17.06;59.37;102750.16;5065191;28;20060;-80
2022/08/07 04:29:12;;;;;;;0.15;0.15;;;;;;;17.05;60.08;102748.38;5048898;28;20068;-80
2022/08/07 04:31:39;;;;;;;0.10;0.10;;;;;;;17.05;59.72;102751.06;5056356;28;20036;-79
2022/08/07 04:34:07;;;;;;;0.52;0.52;;;;;;;17.08;59.92;102756.34;5066584;28;20029;-79
2022/08/07 04:36:34;;;;;;;0.03;0.03;;;;;;;17.11;59.55;102756.31;5060738;28;20035;-78
2022/08/07 04:39:03;;;;;;;0.00;0.00;;;;;;;17.12;59.79;102757.19;5065885;28;20080;-80
2022/08/07 04:41:29;;;;;;;0.22;0.22;;;;;;;17.11;59.86;102759.00;5066977;28;20029;-80
2022/08/07 04:43:56;;;;;;;0.08;0.08;;;;;;;17.13;59.76;102758.94;5049172;28;20033;-80
2022/08/07 04:52:01;;;;;;;0.15;0.15;;;;;;;17.18;59.79;102746.34;5125999;27;20718;-79
2022/08/07 04:54:35;;;;;;;0.30;0.30;;;;;;;17.19;59.72;102755.28;5126324;28;20066;-77
2022/08/07 04:59:45;;;;;;;0.10;0.10;;;;;;;17.21;60.08;102759.72;5084575;28;20375;-80
2022/08/07 05:02:38;;;;;;;0.10;0.10;;;;;;;17.24;60.51;102764.13;5069568;28;20038;-80
2022/08/07 05:07:59;;;;;;;0.10;0.10;;;;;;;17.27;59.93;102777.47;5072146;28;20397;-77
2022/08/07 05:10:35;;;;;;;0.10;0.10;;;;;;;17.29;60.23;102771.16;5079317;28;20032;-77
2022/08/07 05:13:08;;;;;;;0.10;0.10;;;;;;;17.34;59.73;102780.94;5066325;28;20150;-77
2022/08/07 05:15:42;;;;;;;0.10;0.10;;;;;;;17.38;60.24;102774.59;5063092;28;20517;-77
2022/08/07 05:18:17;;;;;;;0.10;0.10;;;;;;;17.39;59.91;102773.69;5066945;28;20030;-77
2022/08/07 05:20:48;;;;;;;0.00;0.00;;;;;;;17.40;60.30;102773.66;5071394;28;20115;-77
2022/08/07 05:23:21;;;;;;;0.20;0.20;;;;;;;17.44;60.51;102780.72;5066611;28;20056;-77
2022/08/07 05:25:49;;;;;;;0.10;0.10;;;;;;;17.45;60.22;102781.63;5069672;28;20028;-77
2022/08/07 05:28:17;;;;;;;0.10;0.10;;;;;;;17.49;59.84;102774.41;5069433;28;20047;-77
2022/08/07 05:30:44;;;;;;;0.10;0.10;;;;;;;17.51;59.78;102773.47;5066158;28;20033;-77
2022/08/07 05:33:13;;;;;;;0.10;0.10;;;;;;;17.54;60.19;102775.22;5069230;28;20133;-77
2022/08/07 05:35:41;;;;;;;0.10;0.10;;;;;;;17.58;60.03;102777.81;5071231;28;20063;-77
2022/08/07 05:38:09;;;;;;;0.20;0.20;;;;;;;17.62;59.86;102767.94;5074768;28;20493;-77
2022/08/07 05:40:37;;;;;;;0.20;0.20;;;;;;;17.68;59.79;102767.78;5064160;28;21352;-77
2022/08/07 05:43:04;;;;;;;0.13;0.13;;;;;;;17.71;59.30;102766.88;5068525;28;20492;-77
2022/08/07 05:45:30;;;;;;;0.10;0.10;;;;;;;17.74;59.32;102767.66;5057839;28;20075;-76
2022/08/07 05:47:57;;;;;;;0.10;0.10;;;;;;;17.81;59.44;102772.91;5062932;28;20071;-76
2022/08/07 05:50:24;;;;;;;0.00;0.00;;;;;;;17.86;59.18;102777.28;5068879;28;20025;-78
2022/08/07 05:52:50;;;;;;;0.10;0.10;;;;;;;17.92;59.21;102782.53;5060765;28;20045;-77
2022/08/07 05:55:17;;;;;;;0.10;0.10;;;;;;;17.97;58.75;102784.25;5062734;28;20032;-76
2022/08/07 05:57:44;;;;;;;0.00;0.00;;;;;;;18.02;58.65;102783.25;5071437;28;20033;-76
2022/08/07 06:00:11;;;;;;;0.10;0.10;;;;;;;18.05;59.10;102785.84;5065383;28;20032;-76
2022/08/07 06:02:39;;;;;;;0.20;0.20;;;;;;;18.10;59.08;102785.78;5068184;28;20062;-77
2022/08/07 06:05:10;;;;;;;0.10;0.10;;;;;;;18.16;58.82;102790.13;5065909;28;20040;-77
2022/08/07 06:07:36;;;;;;;0.00;0.00;;;;;;;18.18;58.62;102780.25;5069593;28;20120;-77
2022/08/07 06:10:03;;;;;;;0.00;0.00;;;;;;;18.21;58.47;102781.06;5063160;28;20087;-77
2022/08/07 06:12:30;;;;;;;0.00;0.00;;;;;;;18.26;58.83;102780.97;5070419;28;20131;-76
2022/08/07 06:14:57;;;;;;;0.10;0.10;;;;;;;18.29;59.18;102780.88;5067325;28;20033;-76
2022/08/07 06:17:28;;;;;;;0.10;0.10;;;;;;;18.32;59.26;102780.84;5066309;28;20021;-76
2022/08/07 06:19:56;;;;;;;0.10;0.10;;;;;;;18.37;58.62;102788.81;5047154;28;20030;-77
2022/08/07 06:22:24;;;;;;;0.10;0.10;;;;;;;18.40;58.67;102781.53;5049113;28;20037;-77
2022/08/07 06:24:50;;;;;;;0.60;0.60;;;;;;;18.45;58.70;102783.25;5061452;28;20065;-77
2022/08/07 06:27:22;;;;;;;0.00;0.00;;;;;;;18.53;58.32;102792.00;5042844;28;20484;-77
2022/08/07 06:29:48;;;;;;;0.05;0.05;;;;;;;18.53;59.01;102784.84;5056310;28;20043;-77
2022/08/07 06:32:14;;;;;;;0.10;0.10;;;;;;;18.60;58.29;102790.94;5053648;28;20398;-77
2022/08/07 06:34:40;;;;;;;0.10;0.10;;;;;;;18.64;58.11;102794.44;5048266;28;20032;-77
2022/08/07 06:37:07;;;;;;;0.00;0.00;;;;;;;18.69;58.45;102796.13;5064081;28;20486;-78
2022/08/07 06:39:33;;;;;;;0.10;0.10;;;;;;;18.78;57.75;102789.66;5059833;28;20155;-78
2022/08/07 06:42:06;;;;;;;0.00;0.00;;;;;;;18.86;57.69;102797.53;5071403;28;20092;-77
2022/08/07 06:44:33;;;;;;;0.00;0.00;;;;;;;18.87;57.66;102788.56;5048173;28;20036;-78
2022/08/07 06:47:00;;;;;;;0.00;0.00;;;;;;;18.93;57.61;102788.44;5050508;28;20029;-78
2022/08/07 06:49:26;;;;;;;0.00;0.00;;;;;;;19.00;57.40;102786.47;5049657;28;20037;-76
2022/08/07 06:51:54;;;;;;;0.10;0.10;;;;;;;19.06;57.18;102786.31;5054635;28;20025;-76
2022/08/07 06:54:23;;;;;;;0.30;0.30;;;;;;;19.11;57.50;102783.53;5062119;28;20048;-77
2022/08/07 06:56:50;;;;;;;0.00;0.00;;;;;;;19.14;57.19;102781.66;5056660;28;20495;-77
2022/08/07 06:59:21;;;;;;;0.10;0.10;;;;;;;19.22;56.87;102789.50;5048005;28;21344;-76
2022/08/07 07:01:48;;;;;;;0.00;0.00;;;;;;;19.24;56.83;102776.94;5045808;28;20033;-78
2022/08/07 07:04:15;;;;;;;0.10;0.10;;;;;;;19.30;56.62;102779.47;5045985;28;20855;-76
2022/08/07 07:06:43;;;;;;;0.10;0.10;;;;;;;19.35;56.68;102784.69;5040918;28;20025;-76
2022/08/07 07:09:27;;;;;;;0.00;0.00;;;;;;;19.48;56.55;102779.91;5043572;28;20041;-76
2022/08/07 07:15:07;;;;;;;0.10;0.10;;;;;;;19.63;56.01;102794.75;4988350;28;20432;-76
2022/08/07 07:20:17;;;;;;;0.00;0.00;;;;;;;19.63;55.38;102794.75;5120496;27;20116;-79
2022/08/07 07:22:44;;;;;;;;;;;;;;;19.79;54.47;102798.75;5107967;28;20032;-79
2022/08/07 07:25:12;;;;;;;0.00;0.00;;;;;;;19.74;54.73;102800.69;5085994;28;19912;-79
2022/08/07 07:27:47;;;;;;;0.10;0.10;;;;;;;19.78;54.76;102799.69;5078883;28;20036;-79
2022/08/07 07:30:13;;;;;;;1.65;0.30;;;;;;;19.84;54.67;102790.59;5078119;28;20025;-79
2022/08/07 07:32:42;;;;;;;0.10;0.10;;;;;;;19.92;54.33;102791.25;5079969;28;20095;-79
2022/08/07 07:35:11;;;;;;;0.08;0.08;;;;;;;20.00;54.02;102783.84;5074590;28;20025;-79
2022/08/07 07:37:41;;;;;;;0.10;0.10;;;;;;;20.06;54.28;102777.41;5083579;28;20028;-79
2022/08/07 07:40:15;;;;;;;0.00;0.00;;;;;;;20.11;53.52;102786.25;5083501;28;20116;-78
2022/08/07 07:42:43;;;;;;;0.10;0.10;;;;;;;20.17;53.28;102785.16;5082280;28;20667;-79
2022/08/07 07:45:11;;;;;;;0.00;0.00;;;;;;;20.23;53.42;102782.28;5080509;28;20032;-78
2022/08/07 07:47:42;;;;;;;0.10;0.10;;;;;;;20.32;53.55;102784.69;5078212;28;20036;-79
2022/08/07 07:50:11;;;;;;;0.10;0.10;;;;;;;20.31;51.86;102780.25;5085291;28;20055;-79
2022/08/07 07:52:39;;;;;;;0.30;0.30;;;;;;;20.41;52.12;102782.66;5076337;28;20063;-79
2022/08/07 07:55:07;;;;;;;0.10;0.10;;;;;;;20.45;50.92;102774.44;5083936;28;20036;-77
2022/08/07 07:57:35;;;;;;;0.90;0.90;;;;;;;20.53;50.92;102783.16;5077951;28;20036;-79
2022/08/07 08:00:03;;;;;;;0.40;0.40;;;;;;;20.60;51.10;102773.09;5078048;28;20040;-78
2022/08/07 08:02:34;;;;;;;0.00;0.00;;;;;;;20.64;50.13;102765.78;5076266;28;20055;-79
2022/08/07 08:05:04;;;;;;;0.10;0.10;;;;;;;20.70;51.56;102765.59;5080502;28;20033;-78
2022/08/07 08:07:32;;;;;;;0.00;0.00;;;;;;;20.79;51.41;102767.16;5073143;28;20036;-80
2022/08/07 08:10:00;;;;;;;0.13;0.13;;;;;;;20.86;51.71;102757.94;5073588;28;20033;-79
2022/08/07 08:12:26;;;;;;;0.03;0.03;;;;;;;20.93;50.73;102758.59;5076635;28;20033;-79
2022/08/07 08:14:52;;;;;;;0.13;0.13;;;;;;;21.00;50.72;102758.34;5072239;28;20024;-80
2022/08/07 08:17:21;;;;;;;0.10;0.10;;;;;;;21.06;50.27;102759.97;5074596;28;20044;-79
2022/08/07 08:19:51;;;;;;;0.00;0.00;;;;;;;21.19;51.11;102759.53;5074405;28;20162;-79
2022/08/07 08:27:56;;;;;;;0.10;0.10;;;;;;;21.45;50.51;102761.31;5071734;28;20064;-79
2022/08/07 08:30:23;;;;;;;0.32;0.32;;;;;;;21.56;50.24;102759.16;5063524;28;20145;-78
2022/08/07 08:32:55;;;;;;;0.10;0.10;;;;;;;21.62;47.85;102753.53;5056300;28;20035;-80
2022/08/07 08:35:25;;;;;;;0.10;0.10;;;;;;;21.75;49.29;102755.78;5061902;28;20059;-80
2022/08/07 08:37:58;;;;;;;0.05;0.05;;;;;;;21.84;48.70;102752.72;5059235;28;20041;-78
2022/08/07 08:40:30;;;;;;;0.00;0.00;;;;;;;21.92;48.93;102756.03;5060121;28;20025;-78
2022/08/07 08:43:02;;;;;;;;;;;;;;;22.09;48.68;102747.31;5058976;28;20025;-78
2022/08/07 08:46:00;;;;;;;0.10;0.10;;;;;;;22.10;48.79;102748.19;5059834;28;19959;-78
2022/08/07 08:51:26;;;;;;;0.20;0.20;;;;;;;22.19;48.64;102747.81;5107439;27;20174;-75
2022/08/07 08:54:06;;;;;;;0.30;0.30;;;;;;;22.32;47.16;102739.22;5108743;28;20073;-75
2022/08/07 08:56:42;;;;;;;0.10;0.10;;;;;;;22.42;47.88;102752.34;5108555;28;20116;-75
2022/08/07 08:59:34;;;;;;;0.10;0.10;;;;;;;22.50;46.29;102751.16;5088913;28;20536;-74
2022/08/07 09:05:24;;;;;;;0.10;0.10;;;;;;;22.54;43.11;102756.38;5053452;28;20388;-75
2022/08/07 09:10:49;;;;;;;0.30;0.30;;;;;;;22.68;42.26;102746.81;5086789;27;20913;-75
2022/08/07 09:21:51;;;;;;;0.10;0.10;;;;;;;23.04;44.62;102751.63;5077792;27;20413;-75
2022/08/07 09:30:05;;;;;;;0.08;0.08;;;;;;;23.18;42.78;102754.66;5125461;27;20716;-75
2022/08/07 09:32:49;;;;;;;;;;;;;;;23.28;43.04;102741.63;5102858;28;20067;-75
2022/08/07 09:38:10;;;;;;;0.20;0.20;;;;;;;23.38;43.68;102740.25;5067987;27;20922;-76
2022/08/07 09:41:18;;;;;;;0.17;0.17;;;;;;;23.52;42.96;102736.06;5062960;28;20028;-76
2022/08/07 09:44:13;;;;;;;0.15;0.15;;;;;;;23.58;42.33;102736.66;5060503;28;20067;-76
2022/08/07 09:50:02;;;;;;;0.10;0.10;;;;;;;23.80;43.05;102738.41;5059926;28;20418;-76
2022/08/07 09:55:28;;;;;;;0.10;0.10;;;;;;;23.93;42.60;102735.16;5102401;27;20396;-76
2022/08/07 09:58:23;;;;;;;0.05;0.05;;;;;;;24.02;41.94;102729.31;5083423;28;20071;-76
2022/08/07 10:07:03;;;;;;;0.10;0.10;;;;;;;24.02;38.95;102716.63;5063554;28;20486;-76
2022/08/07 10:15:23;;;;;;;0.08;0.08;;;;;;;24.27;39.50;102706.47;5116311;27;20358;-76
2022/08/07 10:20:41;;;;;;;0.25;0.25;;;;;;;24.38;40.90;102698.69;5093628;27;20129;-76
2022/08/07 10:23:33;;;;;;;0.20;0.20;;;;;;;24.49;39.30;102690.91;5081028;28;20030;-76
2022/08/07 10:26:27;;;;;;;0.10;0.10;;;;;;;24.66;40.72;102689.19;5077564;28;20033;-75
2022/08/07 10:29:32;;;;;;;0.10;0.10;;;;;;;24.75;39.73;102685.16;5063350;28;20029;-74
2022/08/07 10:37:54;;;;;;;0.13;0.13;;;;;;;25.05;39.94;102669.13;5043906;28;20431;-75
2022/08/07 10:43:14;;;;;;;0.10;0.10;;;;;;;25.02;36.92;102662.03;5068380;28;20407;-75
2022/08/07 10:45:48;;;;;;;;;;;;;;;25.14;37.12;102665.94;5053793;28;20432;-76
2022/08/07 10:51:23;;;;;;;0.10;0.10;;;;;;;25.24;39.60;102658.19;5043482;27;20403;-76
2022/08/07 10:54:05;;;;;;;0.20;0.20;;;;;;;25.30;37.44;102654.28;5038720;27;20038;-75
2022/08/07 10:57:01;;;;;;;0.57;0.57;;;;;;;25.40;38.66;102650.13;5034123;27;20024;-76
2022/08/07 10:59:56;;;;;;;0.30;0.30;;;;;;;25.43;38.30;102654.50;5032579;27;20036;-76
2022/08/07 11:02:32;;;;;;;0.32;0.32;;;;;;;25.45;37.86;102647.16;5036576;27;20067;-76
2022/08/07 11:05:38;;;;;;;0.10;0.10;;;;;;;25.59;38.52;102649.13;5026531;27;20065;-75
2022/08/07 11:08:36;;;;;;;0.98;0.90;;;;;;;25.69;38.26;102650.34;5037295;27;20045;-76
2022/08/07 11:11:14;;;;;;;0.10;0.10;;;;;;;25.74;38.46;102645.53;5036918;27;20048;-76
2022/08/07 11:13:48;;;;;;;1.08;0.38;;;;;;;25.82;38.21;102646.00;5028607;27;20169;-76
2022/08/07 11:16:37;;;;;;;0.10;0.10;;;;;;;25.93;37.70;102636.34;5035230;27;20508;-76
2022/08/07 11:19:10;;;;;;;0.10;0.10;;;;;;;25.87;37.75;102639.41;5034439;27;20053;-77
2022/08/07 11:27:22;;;;;;;0.30;0.30;;;;;;;25.84;33.91;102627.78;5067994;27;20411;-78
2022/08/07 11:32:53;;;;;;;0.10;0.10;;;;;;;26.11;35.88;102635.31;5066619;28;20410;-77
2022/08/07 11:35:24;;;;;;;0.40;0.40;;;;;;;26.10;35.44;102627.28;5071376;28;20055;-79
2022/08/07 11:43:43;;;;;;;0.00;0.00;;;;;;;26.37;35.11;102613.91;5031385;28;20396;-79
2022/08/07 11:52:01;;;;;;;0.40;0.40;;;;;;;26.52;34.23;102597.66;5051737;28;20782;-78
2022/08/07 12:03:38;;;;;;;0.10;0.10;;;;;;;27.00;32.42;102589.34;5106108;27;20426;-76
2022/08/07 12:06:44;;;;;;;0.03;0.03;;;;;;;27.25;33.01;102585.94;5100387;28;20038;-76
2022/08/07 12:14:47;;;;;;;0.10;0.10;;;;;;;27.58;33.30;102585.66;5099296;27;20404;-76
2022/08/07 12:17:19;;;;;;;0.25;0.25;;;;;;;27.73;33.34;102588.34;5053384;28;20024;-75
2022/08/07 12:19:56;;;;;;;0.10;0.10;;;;;;;27.85;33.54;102586.66;5056433;28;20058;-76
2022/08/07 12:22:51;;;;;;;0.10;0.10;;;;;;;27.94;32.94;102591.50;5060207;28;20037;-77
2022/08/07 12:26:02;;;;;;;0.55;0.55;;;;;;;28.06;33.21;102578.94;5077144;28;20078;-76
2022/08/07 12:28:33;;;;;;;0.00;0.00;;;;;;;28.20;33.42;102570.72;5071460;28;20040;-76
2022/08/07 12:31:07;;;;;;;0.10;0.10;;;;;;;28.24;31.85;102582.28;5066826;28;20136;-76
2022/08/07 12:33:34;;;;;;;0.10;0.10;;;;;;;28.28;33.11;102582.94;5067872;28;20110;-76
2022/08/07 12:36:04;;;;;;;0.88;0.55;;;;;;;28.45;32.79;102574.47;5068734;28;20029;-77
2022/08/07 12:38:31;;;;;;;0.10;0.10;;;;;;;28.53;32.65;102584.84;5070577;28;20025;-77
2022/08/07 12:41:01;;;;;;;0.10;0.10;;;;;;;28.55;33.20;102574.72;5069739;28;20407;-77
2022/08/07 12:43:31;;;;;;;0.10;0.10;;;;;;;28.51;31.55;102575.88;5070640;28;20043;-77
2022/08/07 12:46:11;;;;;;;0.10;0.10;;;;;;;28.60;31.41;102577.09;5071155;28;20036;-77
2022/08/07 12:51:19;;;;;;;0.20;0.20;;;;;;;28.77;31.77;102578.69;5068997;28;20414;-77
2022/08/07 12:54:03;;;;;;;0.10;0.10;;;;;;;28.78;30.04;102575.00;5071732;28;20594;-77
2022/08/07 12:56:34;;;;;;;0.10;0.10;;;;;;;28.78;31.00;102564.94;5071783;28;20107;-77
2022/08/07 12:59:04;;;;;;;0.10;0.10;;;;;;;28.70;29.49;102570.94;5072061;28;20024;-77
2022/08/07 13:07:24;;;;;;;1.30;0.95;;;;;;;29.10;29.61;102553.59;5081926;27;20397;-77
2022/08/07 13:10:30;;;;;;;0.10;0.10;;;;;;;29.23;29.13;102553.56;5088930;28;20043;-76
2022/08/07 13:13:28;;;;;;;0.10;0.10;;;;;;;29.24;30.08;102555.31;5087782;28;20035;-76
2022/08/07 13:19:17;;;;;;;0.20;0.20;;;;;;;29.20;28.91;102556.53;5108504;27;20881;-76
2022/08/07 13:21:59;;;;;;;0.10;0.10;;;;;;;29.28;30.38;102562.28;5105042;28;20544;-76
2022/08/07 13:24:47;;;;;;;0.10;0.10;;;;;;;29.33;30.34;102561.97;5108079;28;20077;-76
2022/08/07 13:27:19;;;;;;;0.00;0.00;;;;;;;29.28;28.58;102556.81;5087878;28;20028;-76
2022/08/07 13:30:05;;;;;;;0.10;0.10;;;;;;;29.40;29.63;102551.47;5088083;28;20111;-76
2022/08/07 13:35:22;;;;;;;0.10;0.10;;;;;;;29.12;28.53;102548.00;5088374;28;20889;-76
2022/08/07 13:38:00;;;;;;;1.75;0.43;;;;;;;29.19;30.15;102547.44;5083854;28;20082;-76
2022/08/07 13:40:34;;;;;;;0.10;0.10;;;;;;;29.02;29.15;102545.97;5088720;28;20028;-76
2022/08/07 13:43:05;;;;;;;0.10;0.10;;;;;;;29.11;29.69;102544.41;5090979;28;20020;-77
2022/08/07 13:45:34;;;;;;;0.10;0.10;;;;;;;28.94;28.50;102548.34;5094496;28;20028;-77
2022/08/07 13:48:03;;;;;;;0.00;0.00;;;;;;;28.76;29.06;102545.06;5093252;28;20040;-77
2022/08/07 13:50:31;;;;;;;0.10;0.10;;;;;;;28.94;31.00;102542.91;5093081;28;20028;-77
2022/08/07 13:52:58;;;;;;;0.10;0.10;;;;;;;29.03;30.01;102538.63;5089592;28;20094;-77
2022/08/07 13:55:27;;;;;;;0.10;0.10;;;;;;;28.90;29.06;102538.66;5092440;28;20032;-77